Time;durP1;ratioP1;P1;durP2;ratioP2;P2;SDS_P1;SDS_P2;PMS_P1;PMS_P2;Temp;Humidity;BMP_temperature;BMP_pressure;BME280_temperature;BME280_humidity;BME280_pressure;Samples;Min_cycle;Max_cycle;Signal;HPM_P1;HPM_P2
2021/11/08 00:02:20;;;;;;;13.70;2.70;;;11.50;95.90;;;;;;5096497;28;20900;-73
2021/11/08 00:04:45;;;;;;;19.80;2.83;;;11.40;96.00;;;;;;5082918;28;20420;-73
2021/11/08 00:07:11;;;;;;;19.52;2.53;;;11.40;96.00;;;;;;5101799;28;20407;-75
2021/11/08 00:09:37;;;;;;;18.48;2.50;;;11.40;96.20;;;;;;5085994;28;20492;-72
2021/11/08 00:12:04;;;;;;;21.33;2.83;;;11.40;96.20;;;;;;5096039;28;20404;-72
2021/11/08 00:14:30;;;;;;;23.75;3.20;;;11.40;96.00;;;;;;5105728;28;20408;-73
2021/11/08 00:17:06;;;;;;;16.43;2.80;;;11.40;96.10;;;;;;5104533;28;20816;-73
2021/11/08 00:19:52;;;;;;;18.38;2.65;;;11.40;95.90;;;;;;5102890;28;20444;-72
2021/11/08 00:22:18;;;;;;;14.73;2.55;;;11.30;95.80;;;;;;5066246;28;20424;-72
2021/11/08 00:24:48;;;;;;;17.48;2.40;;;11.30;95.60;;;;;;5103830;28;20496;-73
2021/11/08 00:27:14;;;;;;;16.85;2.40;;;11.30;95.60;;;;;;5085883;28;20889;-71
2021/11/08 00:29:40;;;;;;;20.95;2.20;;;11.30;95.70;;;;;;5086810;28;20407;-72
2021/11/08 00:32:07;;;;;;;16.67;2.90;;;11.30;96.20;;;;;;5099088;28;20923;-73
2021/11/08 00:34:33;;;;;;;14.80;2.50;;;11.30;96.10;;;;;;5102388;28;20427;-74
2021/11/08 00:36:58;;;;;;;20.27;2.90;;;11.30;95.80;;;;;;5084213;28;20408;-72
2021/11/08 00:39:25;;;;;;;15.47;2.83;;;11.20;96.00;;;;;;5102560;28;20545;-73
2021/11/08 00:41:51;;;;;;;14.20;2.15;;;11.20;95.60;;;;;;5098714;28;20417;-71
2021/11/08 00:44:18;;;;;;;14.00;2.20;;;10.90;96.50;;;;;;5099437;28;20182;-71
2021/11/08 00:46:44;;;;;;;18.33;2.63;;;10.60;96.50;;;;;;5100600;28;20814;-73
2021/11/08 00:49:10;;;;;;;19.60;2.75;;;10.40;96.80;;;;;;5099162;28;20415;-73
2021/11/08 00:51:41;;;;;;;18.23;2.90;;;10.60;97.50;;;;;;5083300;28;20400;-74
2021/11/08 00:54:10;;;;;;;19.02;2.47;;;10.80;97.60;;;;;;5104969;28;21332;-73
2021/11/08 00:56:37;;;;;;;15.73;2.50;;;10.90;97.50;;;;;;5097701;28;20927;-73
2021/11/08 00:59:03;;;;;;;17.30;2.70;;;10.90;97.50;;;;;;5083917;28;20412;-72
2021/11/08 01:01:30;;;;;;;20.35;3.22;;;10.90;97.60;;;;;;5100025;28;20688;-73
2021/11/08 01:03:56;;;;;;;17.25;2.90;;;10.90;97.80;;;;;;5080291;28;20432;-73
2021/11/08 01:06:23;;;;;;;16.95;2.75;;;10.90;97.80;;;;;;5081775;28;20901;-73
2021/11/08 01:08:49;;;;;;;23.02;3.00;;;10.90;98.10;;;;;;5084794;28;20811;-71
2021/11/08 01:11:15;;;;;;;19.85;2.78;;;10.90;97.90;;;;;;5099235;28;20938;-74
2021/11/08 01:13:43;;;;;;;21.90;3.00;;;10.90;97.90;;;;;;5101395;28;20416;-71
2021/11/08 01:16:10;;;;;;;20.17;3.28;;;10.80;97.70;;;;;;5065891;28;20416;-72
2021/11/08 01:18:36;;;;;;;19.30;3.25;;;10.80;97.20;;;;;;5102415;28;20863;-72
2021/11/08 01:21:03;;;;;;;22.02;2.85;;;10.80;97.40;;;;;;5083904;28;20407;-73
2021/11/08 01:23:30;;;;;;;19.67;2.90;;;10.80;97.80;;;;;;5101037;28;20452;-71
2021/11/08 01:26:05;;;;;;;23.23;3.10;;;10.80;97.70;;;;;;5075939;28;20418;-72
2021/11/08 01:28:41;;;;;;;22.50;3.30;;;10.80;97.00;;;;;;5103922;28;20412;-74
2021/11/08 01:31:09;;;;;;;19.35;3.30;;;10.80;97.10;;;;;;5084267;28;20423;-71
2021/11/08 01:33:36;;;;;;;17.57;3.03;;;10.80;96.70;;;;;;5104207;28;20532;-72
2021/11/08 01:41:06;;;;;;;17.52;2.85;;;10.80;96.00;;;;;;5098326;28;20425;-73
2021/11/08 01:43:33;;;;;;;19.77;2.92;;;10.80;96.60;;;;;;5078530;28;20916;-75
2021/11/08 01:46:00;;;;;;;21.00;3.03;;;10.80;96.50;;;;;;5101960;28;20404;-73
2021/11/08 01:48:26;;;;;;;17.25;2.80;;;10.80;96.30;;;;;;5084457;28;20435;-73
2021/11/08 01:50:53;;;;;;;18.20;2.95;;;10.80;96.80;;;;;;5095013;28;20506;-73
2021/11/08 01:53:19;;;;;;;16.25;2.70;;;10.70;96.90;;;;;;5076778;28;20404;-74
2021/11/08 01:55:44;;;;;;;19.63;3.17;;;10.70;97.00;;;;;;5098538;28;20412;-74
2021/11/08 01:58:10;;;;;;;16.33;2.92;;;10.70;97.00;;;;;;5078830;28;20427;-73
2021/11/08 02:00:37;;;;;;;18.55;3.85;;;10.70;97.10;;;;;;5104021;28;20404;-72
2021/11/08 02:03:03;;;;;;;23.38;3.72;;;10.70;97.40;;;;;;5084923;28;20415;-74
2021/11/08 02:05:29;;;;;;;20.70;3.27;;;10.70;97.40;;;;;;5076681;28;20462;-74
2021/11/08 02:07:55;;;;;;;23.38;3.20;;;10.70;97.00;;;;;;5082823;28;20412;-72
2021/11/08 02:10:21;;;;;;;20.27;2.90;;;10.70;96.90;;;;;;5100342;28;20408;-73
2021/11/08 02:12:47;;;;;;;23.25;3.05;;;10.70;97.20;;;;;;5092790;28;20461;-73
2021/11/08 02:15:18;;;;;;;17.35;3.15;;;10.70;97.30;;;;;;5096822;28;20839;-74
2021/11/08 02:17:47;;;;;;;20.38;3.10;;;10.70;97.30;;;;;;5082900;28;21215;-74
2021/11/08 02:20:25;;;;;;;18.75;2.85;;;10.70;97.00;;;;;;5075005;28;20416;-71
2021/11/08 02:22:51;;;;;;;17.17;2.90;;;10.70;97.00;;;;;;5098900;28;20448;-71
2021/11/08 02:25:19;;;;;;;19.48;3.15;;;10.60;97.30;;;;;;5099377;28;20415;-73
2021/11/08 02:27:45;;;;;;;18.73;3.25;;;10.60;97.60;;;;;;5079261;28;20408;-71
2021/11/08 02:30:12;;;;;;;18.60;2.85;;;10.60;97.80;;;;;;5084312;28;20404;-72
2021/11/08 02:32:39;;;;;;;16.25;3.17;;;10.60;97.90;;;;;;5099142;28;20466;-74
2021/11/08 02:35:07;;;;;;;21.08;3.35;;;10.50;98.00;;;;;;5099949;28;20827;-74
2021/11/08 02:37:33;;;;;;;24.63;3.20;;;10.50;98.10;;;;;;5079849;28;20454;-73
2021/11/08 02:40:01;;;;;;;19.67;2.85;;;10.50;98.40;;;;;;5098814;28;20844;-73
2021/11/08 02:42:27;;;;;;;19.83;2.90;;;10.50;98.60;;;;;;5099883;28;20462;-71
2021/11/08 02:44:54;;;;;;;22.50;2.97;;;10.50;98.60;;;;;;5082287;28;21663;-72
2021/11/08 02:47:21;;;;;;;23.98;3.20;;;10.50;98.60;;;;;;5084285;28;20451;-73
2021/11/08 02:49:49;;;;;;;19.88;2.90;;;10.50;98.70;;;;;;5099941;28;20441;-73
2021/11/08 02:52:19;;;;;;;18.60;2.53;;;10.50;98.60;;;;;;5096515;28;22357;-74
2021/11/08 02:54:48;;;;;;;22.65;3.42;;;10.50;98.40;;;;;;5099407;28;20412;-71
2021/11/08 02:57:15;;;;;;;23.05;3.25;;;10.50;98.30;;;;;;5083659;28;20479;-73
2021/11/08 02:59:41;;;;;;;23.15;3.15;;;10.50;98.30;;;;;;5085871;28;20461;-73
2021/11/08 03:02:08;;;;;;;20.23;2.88;;;10.50;98.40;;;;;;5099287;28;20445;-73
2021/11/08 03:04:39;;;;;;;19.37;2.57;;;10.50;98.50;;;;;;5097854;28;20457;-73
2021/11/08 03:07:05;;;;;;;19.45;2.45;;;10.50;98.40;;;;;;5080036;28;20444;-73
2021/11/08 03:09:34;;;;;;;19.27;2.63;;;10.60;98.30;;;;;;5101877;28;20511;-73
2021/11/08 03:12:08;;;;;;;16.25;2.60;;;10.60;98.40;;;;;;5093802;28;20425;-73
2021/11/08 03:14:40;;;;;;;19.13;3.00;;;10.60;98.40;;;;;;5102358;28;20408;-73
2021/11/08 03:17:06;;;;;;;18.48;2.95;;;10.60;98.50;;;;;;5098116;28;20422;-73
2021/11/08 03:19:37;;;;;;;22.27;2.90;;;10.70;98.70;;;;;;5098207;28;20520;-73
2021/11/08 03:22:11;;;;;;;20.45;2.95;;;10.70;98.70;;;;;;5099027;28;20506;-73
2021/11/08 03:27:10;;;;;;;21.40;2.75;;;10.70;99.00;;;;;;5099317;28;21360;-72
2021/11/08 03:29:35;;;;;;;23.77;2.75;;;10.70;99.10;;;;;;5101135;28;20416;-74
2021/11/08 03:32:01;;;;;;;23.47;3.50;;;10.70;99.10;;;;;;5087460;28;20407;-72
2021/11/08 03:34:29;;;;;;;18.80;3.10;;;10.70;99.20;;;;;;5094702;28;20496;-73
2021/11/08 03:36:56;;;;;;;22.07;3.30;;;10.70;99.20;;;;;;5078247;28;20412;-74
2021/11/08 03:39:23;;;;;;;23.45;2.85;;;10.70;99.00;;;;;;5098572;28;20498;-72
2021/11/08 03:41:49;;;;;;;21.50;2.70;;;10.70;98.70;;;;;;5103771;28;20419;-73
2021/11/08 03:44:15;;;;;;;19.40;3.40;;;10.70;98.70;;;;;;5099707;28;20421;-72
2021/11/08 03:46:41;;;;;;;21.08;3.40;;;10.70;98.60;;;;;;5099496;28;20884;-71
2021/11/08 03:49:07;;;;;;;20.75;3.15;;;10.70;98.70;;;;;;5103005;28;20412;-72
2021/11/08 03:51:33;;;;;;;20.93;2.80;;;10.70;98.70;;;;;;5092968;28;20419;-73
2021/11/08 03:54:00;;;;;;;21.70;3.35;;;10.70;98.80;;;;;;5100322;28;20874;-73
2021/11/08 03:56:25;;;;;;;15.65;2.80;;;10.70;98.60;;;;;;5084304;28;20421;-73
2021/11/08 03:58:51;;;;;;;19.35;2.85;;;10.70;98.70;;;;;;5105180;28;20442;-73
2021/11/08 04:01:17;;;;;;;26.07;3.40;;;10.70;98.70;;;;;;5100524;28;20412;-73
2021/11/08 04:03:43;;;;;;;21.73;3.30;;;10.70;98.60;;;;;;5105766;28;20892;-71
2021/11/08 04:06:09;;;;;;;20.20;3.10;;;10.70;98.70;;;;;;5103986;28;20436;-72
2021/11/08 04:08:36;;;;;;;23.10;3.72;;;10.60;99.10;;;;;;5076354;28;20549;-74
2021/11/08 04:11:02;;;;;;;29.77;4.28;;;10.70;99.10;;;;;;5069978;28;20504;-74
2021/11/08 04:13:33;;;;;;;18.50;3.20;;;10.60;99.20;;;;;;5077542;28;20503;-73
2021/11/08 04:16:01;;;;;;;25.50;3.60;;;10.60;99.00;;;;;;5101202;28;20424;-74
2021/11/08 04:18:28;;;;;;;20.55;2.72;;;10.50;98.90;;;;;;5080091;28;20913;-73
2021/11/08 04:20:55;;;;;;;18.87;2.87;;;10.60;99.10;;;;;;5103269;28;20423;-74
2021/11/08 04:23:24;;;;;;;19.08;3.80;;;10.60;99.00;;;;;;5086537;28;20952;-74
2021/11/08 04:25:51;;;;;;;23.50;3.63;;;10.60;99.20;;;;;;5106017;28;20656;-75
2021/11/08 04:28:16;;;;;;;22.50;3.50;;;10.60;99.20;;;;;;5094823;28;20471;-74
2021/11/08 04:30:43;;;;;;;25.00;4.10;;;10.60;99.40;;;;;;5086914;28;20404;-74
2021/11/08 04:36:03;;;;;;;22.65;3.88;;;10.50;99.50;;;;;;5082091;28;20408;-73
2021/11/08 04:38:45;;;;;;;;;;;;;;;;;;;;;
2021/11/08 04:41:14;;;;;;;26.48;3.80;;;10.60;99.80;;;;;;5091781;28;20420;-72
2021/11/08 04:49:30;;;;;;;19.92;3.50;;;10.70;99.70;;;;;;5082176;28;20412;-74
2021/11/08 04:52:06;;;;;;;20.23;3.25;;;10.80;99.80;;;;;;5100585;28;20422;-72
2021/11/08 04:57:34;;;;;;;19.70;2.75;;;10.90;99.60;;;;;;5100510;28;20548;-72
2021/11/08 05:30:04;;;;;;;24.02;3.88;;;11.20;99.90;;;;;;5097599;28;20400;-73
2021/11/08 05:32:32;;;;;;;24.85;3.65;;;11.20;99.90;;;;;;5084347;28;21160;-73
2021/11/08 05:34:58;;;;;;;19.48;3.83;;;11.10;99.90;;;;;;5078877;28;20513;-72
2021/11/08 05:37:24;;;;;;;27.65;3.90;;;11.10;99.90;;;;;;5097456;28;20420;-74
2021/11/08 05:39:54;;;;;;;21.60;4.15;;;11.00;99.90;;;;;;5103573;28;20420;-72
2021/11/08 05:42:20;;;;;;;23.10;3.35;;;11.00;99.90;;;;;;5100788;28;20905;-75
2021/11/08 05:44:46;;;;;;;22.50;3.50;;;10.90;99.60;;;;;;5076972;28;20410;-74
2021/11/08 05:47:12;;;;;;;21.47;3.30;;;10.90;99.20;;;;;;5083772;28;20414;-72
2021/11/08 05:49:38;;;;;;;19.35;3.65;;;10.90;98.80;;;;;;5068961;28;20406;-74
2021/11/08 05:52:05;;;;;;;19.05;3.00;;;10.90;99.10;;;;;;5082437;28;20508;-73
2021/11/08 05:54:31;;;;;;;20.77;3.00;;;10.90;99.10;;;;;;5070775;28;20475;-73
2021/11/08 06:51:24;;;;;;;22.10;3.88;;;11.30;98.40;;;;;;5092801;28;20415;-73
2021/11/08 06:53:54;;;;;;;21.37;3.50;;;11.30;97.60;;;;;;5081402;28;20948;-73
2021/11/08 06:56:26;;;;;;;22.23;3.53;;;11.40;97.40;;;;;;5100530;28;20419;-74
2021/11/08 06:58:51;;;;;;;27.67;4.20;;;11.40;97.50;;;;;;5102550;28;20464;-73
2021/11/08 07:01:17;;;;;;;22.47;3.13;;;11.50;97.40;;;;;;5101510;28;20419;-74
2021/11/08 07:03:43;;;;;;;21.33;3.63;;;11.50;97.90;;;;;;5095868;28;20409;-73
2021/11/08 07:06:08;;;;;;;20.13;3.70;;;11.50;97.50;;;;;;5079693;28;20404;-72
2021/11/08 07:08:34;;;;;;;22.87;3.70;;;11.50;97.40;;;;;;5083292;28;20400;-73
2021/11/08 07:11:00;;;;;;;21.92;3.65;;;11.60;97.40;;;;;;5099429;28;20414;-72
2021/11/08 07:13:26;;;;;;;29.20;4.20;;;11.60;97.70;;;;;;5084837;28;20438;-73
2021/11/08 07:15:52;;;;;;;24.97;3.90;;;11.70;97.30;;;;;;5086762;28;20407;-73
2021/11/08 07:18:17;;;;;;;25.17;3.65;;;11.70;96.90;;;;;;5102206;27;20411;-74
2021/11/08 07:20:44;;;;;;;22.40;3.43;;;11.70;96.90;;;;;;5102859;27;20969;-73
2021/11/08 07:23:09;;;;;;;24.57;3.73;;;11.80;96.90;;;;;;5102676;28;20396;-73
2021/11/08 07:25:35;;;;;;;20.05;3.05;;;11.80;96.80;;;;;;5102864;27;20420;-75
2021/11/08 07:28:04;;;;;;;26.63;3.67;;;11.80;96.90;;;;;;5100583;27;20407;-77
2021/11/08 07:30:31;;;;;;;25.17;4.30;;;11.90;96.50;;;;;;5102448;28;20440;-73
2021/11/08 07:32:56;;;;;;;26.85;4.15;;;11.90;96.50;;;;;;5104905;28;20483;-73
2021/11/08 07:35:22;;;;;;;28.35;4.63;;;11.90;96.30;;;;;;5106473;27;20499;-74
2021/11/08 07:37:48;;;;;;;22.40;3.72;;;12.00;96.30;;;;;;5103759;28;20424;-74
2021/11/08 07:40:14;;;;;;;19.77;3.42;;;12.00;95.80;;;;;;5105768;27;20522;-74
2021/11/08 07:42:42;;;;;;;25.20;3.80;;;12.10;95.90;;;;;;5102137;28;20419;-74
2021/11/08 07:45:08;;;;;;;22.08;4.03;;;12.10;96.20;;;;;;5103323;28;20757;-73
2021/11/08 07:47:33;;;;;;;21.33;3.25;;;12.10;96.40;;;;;;5101457;27;20410;-72
2021/11/08 07:49:59;;;;;;;26.53;3.70;;;12.20;96.70;;;;;;5105514;28;20408;-74
2021/11/08 07:52:25;;;;;;;19.92;2.97;;;12.20;97.50;;;;;;5084698;27;20410;-72
2021/11/08 07:54:50;;;;;;;20.17;2.93;;;12.10;97.70;;;;;;5087232;28;20420;-74
2021/11/08 07:57:16;;;;;;;19.93;3.80;;;12.10;97.60;;;;;;5100543;28;20908;-72
2021/11/08 07:59:41;;;;;;;19.15;3.08;;;12.10;97.40;;;;;;5104010;27;20536;-74
2021/11/08 08:02:08;;;;;;;17.80;3.20;;;12.10;97.50;;;;;;5104176;27;20411;-75
2021/11/08 08:04:33;;;;;;;18.45;2.83;;;12.00;97.10;;;;;;5104684;28;20404;-73
2021/11/08 08:06:59;;;;;;;20.05;2.95;;;12.00;96.70;;;;;;5100905;28;20896;-75
2021/11/08 08:09:25;;;;;;;24.27;4.85;;;12.10;96.70;;;;;;5101636;28;20483;-73
2021/11/08 08:11:50;;;;;;;16.13;3.23;;;12.10;96.40;;;;;;5082439;28;20479;-74
2021/11/08 08:14:17;;;;;;;20.07;3.27;;;12.10;96.30;;;;;;5101042;28;20497;-73
2021/11/08 08:16:42;;;;;;;18.45;2.85;;;12.10;96.00;;;;;;5103944;27;20499;-74
2021/11/08 08:19:08;;;;;;;17.63;3.03;;;12.20;95.90;;;;;;5106699;28;20424;-74
2021/11/08 08:21:34;;;;;;;19.02;2.60;;;12.20;95.70;;;;;;5069425;28;20428;-74
2021/11/08 08:24:02;;;;;;;18.73;3.27;;;12.20;95.70;;;;;;5086159;28;20407;-74
2021/11/08 08:26:31;;;;;;;18.77;3.10;;;12.20;95.70;;;;;;5101458;27;20404;-74
2021/11/08 08:29:03;;;;;;;18.48;2.83;;;12.20;95.40;;;;;;5102104;28;21117;-73
2021/11/08 08:31:29;;;;;;;18.07;3.10;;;12.20;95.50;;;;;;5080323;28;20934;-74
2021/11/08 08:33:55;;;;;;;19.52;2.97;;;12.30;95.30;;;;;;5083941;28;20419;-74
2021/11/08 08:36:21;;;;;;;23.30;3.30;;;12.30;95.30;;;;;;5098746;28;20414;-73
2021/11/08 08:38:49;;;;;;;25.10;3.30;;;12.30;95.00;;;;;;5079019;28;20475;-74
2021/11/08 08:41:15;;;;;;;20.85;3.08;;;12.40;94.80;;;;;;5079954;28;20438;-74
2021/11/08 08:43:41;;;;;;;21.83;2.80;;;12.40;94.70;;;;;;5065483;28;20836;-74
2021/11/08 08:46:07;;;;;;;22.03;3.43;;;12.50;94.70;;;;;;5081989;28;20416;-74
2021/11/08 08:48:33;;;;;;;16.40;3.10;;;12.60;94.40;;;;;;5079084;28;20897;-74
2021/11/08 08:51:00;;;;;;;19.25;3.00;;;12.60;94.00;;;;;;5100692;28;21051;-73
2021/11/08 08:53:26;;;;;;;19.02;2.90;;;12.70;94.00;;;;;;5081636;28;20412;-73
2021/11/08 08:55:52;;;;;;;19.67;2.60;;;12.80;93.90;;;;;;5078260;28;20431;-75
2021/11/08 08:58:18;;;;;;;18.05;3.35;;;13.00;94.10;;;;;;5075576;28;20953;-74
2021/11/08 09:00:47;;;;;;;18.17;3.77;;;13.80;94.30;;;;;;5081791;28;20401;-74
2021/11/08 09:03:13;;;;;;;18.27;3.53;;;15.20;91.90;;;;;;5078186;28;20398;-75
2021/11/08 09:05:39;;;;;;;18.55;3.05;;;16.40;86.00;;;;;;5066638;28;20418;-74
2021/11/08 09:08:05;;;;;;;20.27;3.15;;;16.80;82.50;;;;;;5081584;28;21156;-74
2021/11/08 09:10:33;;;;;;;17.93;3.30;;;16.90;81.90;;;;;;5081593;28;20406;-74
2021/11/08 09:12:59;;;;;;;20.77;3.40;;;16.80;79.60;;;;;;5079647;28;20409;-74
2021/11/08 09:15:26;;;;;;;21.52;3.03;;;16.70;80.70;;;;;;5081627;28;20409;-74
2021/11/08 09:17:52;;;;;;;21.13;3.00;;;16.50;81.50;;;;;;5082358;28;20420;-73
2021/11/08 09:20:18;;;;;;;21.02;3.63;;;16.40;80.90;;;;;;5076034;28;20874;-74
2021/11/08 09:22:46;;;;;;;17.58;3.35;;;16.20;81.80;;;;;;5079973;28;20409;-74
2021/11/08 09:25:13;;;;;;;18.80;3.15;;;16.20;82.80;;;;;;5074125;28;20424;-74
2021/11/08 09:27:40;;;;;;;15.38;2.83;;;16.10;80.20;;;;;;5082658;28;20444;-74
2021/11/08 09:30:08;;;;;;;20.77;3.57;;;16.00;80.60;;;;;;5083509;28;20506;-74
2021/11/08 09:32:34;;;;;;;16.75;2.90;;;15.90;80.30;;;;;;5082834;28;20956;-74
2021/11/08 09:34:59;;;;;;;19.85;3.58;;;15.80;80.40;;;;;;5083079;28;20414;-73
2021/11/08 09:37:31;;;;;;;19.55;3.17;;;15.70;81.50;;;;;;5080820;28;20901;-74
2021/11/08 09:39:57;;;;;;;19.13;3.20;;;15.60;80.40;;;;;;5083038;28;20413;-73
2021/11/08 09:42:24;;;;;;;17.83;3.25;;;15.50;80.70;;;;;;5082260;28;20809;-73
2021/11/08 09:44:51;;;;;;;17.92;2.95;;;15.50;81.90;;;;;;5081358;28;20439;-73
2021/11/08 09:47:17;;;;;;;21.85;3.15;;;15.60;81.30;;;;;;5080831;28;20421;-73
2021/11/08 09:49:51;;;;;;;22.25;3.10;;;15.60;81.90;;;;;;5081268;28;20459;-74
2021/11/08 09:52:17;;;;;;;20.93;3.40;;;15.70;83.20;;;;;;5081952;28;20421;-73
2021/11/08 09:54:43;;;;;;;22.47;3.70;;;15.80;81.20;;;;;;5077393;28;20778;-73
2021/11/08 09:57:10;;;;;;;20.35;3.60;;;16.00;81.10;;;;;;5072901;28;20463;-73
2021/11/08 09:59:36;;;;;;;19.55;3.28;;;16.40;78.30;;;;;;5082871;28;20823;-74
2021/11/08 10:02:09;;;;;;;13.80;2.80;;;16.90;75.30;;;;;;5080194;28;20456;-73
2021/11/08 10:04:34;;;;;;;17.02;2.97;;;17.40;73.80;;;;;;5081123;28;20491;-73
2021/11/08 10:07:00;;;;;;;18.03;3.33;;;18.30;71.20;;;;;;5073729;28;20490;-74
2021/11/08 10:09:26;;;;;;;17.73;3.20;;;19.50;66.40;;;;;;5076092;28;20748;-74
2021/11/08 10:11:51;;;;;;;;;;;20.80;61.40;;;;;;5081148;28;20028;-74
2021/11/08 10:14:18;;;;;;;;;;;20.50;65.20;;;;;;5084575;28;19912;-73
2021/11/08 10:16:47;;;;;;;15.30;2.50;;;20.40;70.10;;;;;;5082802;28;20275;-74
2021/11/08 10:19:21;;;;;;;17.98;3.22;;;20.40;71.10;;;;;;5074296;28;20407;-73
2021/11/08 10:21:50;;;;;;;16.02;3.10;;;21.50;55.50;;;;;;5077678;28;20413;-73
2021/11/08 10:24:24;;;;;;;16.17;3.35;;;21.40;54.90;;;;;;5082753;28;21303;-73
2021/11/08 10:26:54;;;;;;;14.85;3.00;;;20.90;54.50;;;;;;5095180;28;20412;-73
2021/11/08 10:29:21;;;;;;;16.35;3.65;;;20.20;56.70;;;;;;5082178;28;20608;-73
2021/11/08 10:31:50;;;;;;;14.90;2.70;;;19.70;59.20;;;;;;5076362;28;20416;-72
2021/11/08 10:34:18;;;;;;;19.27;2.60;;;19.20;59.80;;;;;;5083239;28;20211;-73
2021/11/08 10:37:05;;;;;;;15.10;2.70;;;18.20;63.10;;;;;;5081061;28;20199;-73
2021/11/08 10:39:38;;;;;;;;;;;17.40;66.10;;;;;;5084044;28;20071;-74
2021/11/08 10:42:04;;;;;;;;;;;16.70;68.90;;;;;;5081805;28;19935;-73
2021/11/08 10:44:31;;;;;;;;;;;16.10;70.30;;;;;;5081829;28;19969;-75
2021/11/08 10:47:01;;;;;;;;;;;15.80;72.00;;;;;;5083878;28;19943;-73
2021/11/08 10:49:34;;;;;;;;;;;15.40;73.50;;;;;;5099722;28;20300;-73
2021/11/08 10:52:00;;;;;;;14.90;2.83;;;15.20;74.70;;;;;;5092566;28;20416;-74
2021/11/08 10:54:32;;;;;;;16.58;2.35;;;15.90;75.30;;;;;;5082169;28;20408;-73
2021/11/08 10:57:01;;;;;;;14.60;2.60;;;16.30;74.60;;;;;;5083315;28;20742;-74
2021/11/08 10:59:37;;;;;;;16.35;2.60;;;16.40;73.80;;;;;;5073658;28;20401;-73
2021/11/08 11:02:06;;;;;;;14.25;2.60;;;16.40;74.20;;;;;;5099522;28;20971;-72
2021/11/08 11:04:43;;;;;;;11.25;2.20;;;16.50;73.90;;;;;;5085743;28;20398;-72
2021/11/08 11:07:13;;;;;;;14.55;2.45;;;16.50;73.00;;;;;;5084060;28;22194;-72
2021/11/08 11:09:39;;;;;;;19.50;2.67;;;16.50;73.50;;;;;;5085068;28;20898;-73
2021/11/08 11:12:13;;;;;;;17.52;2.67;;;16.60;74.00;;;;;;5084097;28;21085;-72
2021/11/08 11:14:42;;;;;;;16.85;2.90;;;16.70;75.10;;;;;;5085801;28;20412;-72
2021/11/08 11:17:11;;;;;;;13.40;2.42;;;16.70;76.90;;;;;;5083325;28;20414;-72
2021/11/08 11:19:38;;;;;;;16.33;2.80;;;16.80;78.40;;;;;;5079964;28;20397;-72
2021/11/08 11:22:08;;;;;;;15.20;2.73;;;16.80;79.00;;;;;;5080705;28;20924;-72
2021/11/08 11:24:41;;;;;;;13.32;3.20;;;16.90;79.80;;;;;;5085067;28;20434;-73
2021/11/08 11:27:11;;;;;;;16.77;2.88;;;16.90;80.50;;;;;;5086268;28;20490;-74
2021/11/08 11:29:37;;;;;;;21.40;3.00;;;17.00;80.30;;;;;;5081231;28;20724;-73
2021/11/08 11:32:04;;;;;;;18.75;2.53;;;17.00;79.80;;;;;;5082983;28;20424;-71
2021/11/08 11:34:30;;;;;;;18.13;2.60;;;17.10;78.20;;;;;;5085520;28;21172;-71
2021/11/08 11:36:55;;;;;;;16.77;2.58;;;17.00;77.70;;;;;;5078530;28;20483;-73
2021/11/08 11:39:22;;;;;;;13.13;2.60;;;17.10;77.10;;;;;;5104973;28;20424;-73
2021/11/08 11:41:49;;;;;;;17.10;2.90;;;17.20;76.70;;;;;;5104457;28;20420;-72
2021/11/08 11:44:21;;;;;;;18.00;2.53;;;17.20;76.90;;;;;;5106711;28;20430;-72
2021/11/08 11:46:51;;;;;;;13.18;2.63;;;17.20;77.60;;;;;;5103797;28;20480;-71
2021/11/08 11:49:18;;;;;;;18.42;2.80;;;17.20;77.60;;;;;;5106162;28;20443;-72
2021/11/08 11:51:47;;;;;;;21.85;5.55;;;17.30;78.50;;;;;;5104126;28;20419;-73
2021/11/08 11:54:15;;;;;;;17.67;3.10;;;17.30;77.40;;;;;;5103978;28;20780;-71
2021/11/08 11:56:44;;;;;;;19.55;2.58;;;17.40;76.60;;;;;;5103611;28;20407;-73
2021/11/08 11:59:11;;;;;;;15.90;2.47;;;17.50;76.30;;;;;;5105756;28;20875;-72
2021/11/08 12:01:38;;;;;;;16.52;2.72;;;17.60;73.90;;;;;;5087022;28;20419;-71
2021/11/08 12:04:05;;;;;;;14.98;2.70;;;17.60;74.30;;;;;;5104505;28;21083;-71
2021/11/08 12:06:35;;;;;;;15.38;2.58;;;17.60;73.80;;;;;;5104907;28;20525;-72
2021/11/08 12:09:05;;;;;;;15.65;2.70;;;17.60;73.10;;;;;;5070865;28;20427;-71
2021/11/08 12:11:43;;;;;;;13.38;2.45;;;17.60;73.90;;;;;;5084942;28;21339;-72
2021/11/08 12:14:31;;;;;;;13.85;2.20;;;17.70;73.10;;;;;;5099831;28;20419;-72
2021/11/08 12:17:07;;;;;;;15.67;2.20;;;17.80;72.80;;;;;;5084024;28;20794;-74
2021/11/08 12:19:37;;;;;;;15.65;2.58;;;17.90;72.20;;;;;;5069738;28;20404;-73
2021/11/08 12:22:23;;;;;;;14.80;2.40;;;17.90;71.10;;;;;;5084097;28;20432;-72
2021/11/08 12:25:16;;;;;;;12.27;2.40;;;17.80;70.60;;;;;;5101838;28;20400;-72
2021/11/08 12:27:45;;;;;;;11.45;2.40;;;17.80;71.30;;;;;;5084514;28;20408;-72
2021/11/08 12:30:28;;;;;;;14.90;2.10;;;17.80;71.20;;;;;;5098136;28;20404;-72
2021/11/08 12:33:00;;;;;;;16.60;2.85;;;17.80;70.60;;;;;;5097290;28;20416;-72
2021/11/08 12:35:33;;;;;;;10.10;2.35;;;17.80;70.00;;;;;;5107215;28;22071;-72
2021/11/08 12:38:00;;;;;;;15.80;2.40;;;17.80;69.20;;;;;;5106860;28;20503;-72
2021/11/08 12:40:31;;;;;;;9.90;2.20;;;17.70;69.00;;;;;;5087717;28;20501;-72
2021/11/08 12:42:58;;;;;;;13.50;1.98;;;17.60;69.70;;;;;;5094992;28;20442;-73
2021/11/08 12:45:28;;;;;;;13.33;2.00;;;17.50;68.70;;;;;;5074665;28;20406;-72
2021/11/08 12:48:08;;;;;;;13.55;2.08;;;17.40;69.00;;;;;;5100994;28;20412;-73
2021/11/08 12:50:43;;;;;;;11.13;2.00;;;17.40;69.40;;;;;;5104507;28;20420;-73
2021/11/08 12:53:27;;;;;;;12.38;2.10;;;17.40;70.10;;;;;;5099433;28;20411;-72
2021/11/08 12:55:55;;;;;;;10.57;2.30;;;17.40;69.90;;;;;;5096455;28;20418;-74
2021/11/08 12:58:42;;;;;;;13.27;2.50;;;17.30;69.50;;;;;;5100429;28;20469;-72
2021/11/08 13:01:11;;;;;;;18.30;2.80;;;17.30;70.30;;;;;;5079108;28;20400;-73
2021/11/08 13:03:40;;;;;;;19.10;3.15;;;17.10;72.10;;;;;;5102688;28;20404;-73
2021/11/08 13:06:40;;;;;;;21.10;3.90;;;17.00;75.30;;;;;;5102207;28;20402;-74
2021/11/08 13:09:18;;;;;;;20.55;3.42;;;16.80;77.70;;;;;;5101372;28;20451;-70
2021/11/08 13:11:54;;;;;;;26.75;3.72;;;16.70;79.20;;;;;;5086659;28;20930;-71
2021/11/08 13:14:30;;;;;;;24.67;4.10;;;16.60;81.00;;;;;;5102779;28;20936;-72
2021/11/08 13:17:15;;;;;;;21.17;3.90;;;16.50;82.30;;;;;;5102279;28;20769;-72
2021/11/08 13:20:03;;;;;;;23.13;4.07;;;16.50;83.10;;;;;;5083879;28;20422;-71
2021/11/08 13:22:33;;;;;;;21.67;4.13;;;16.60;83.10;;;;;;5083901;28;20921;-71
2021/11/08 13:25:07;;;;;;;20.53;3.70;;;16.70;83.00;;;;;;5083424;28;20462;-72
2021/11/08 13:27:33;;;;;;;22.67;3.53;;;16.80;82.50;;;;;;5103039;28;20476;-73
2021/11/08 13:30:04;;;;;;;27.93;4.77;;;16.80;82.90;;;;;;5097967;28;20824;-71
2021/11/08 13:32:31;;;;;;;20.92;3.80;;;16.70;83.00;;;;;;5099762;28;20392;-71
2021/11/08 13:35:07;;;;;;;22.65;3.55;;;16.70;82.70;;;;;;5082759;28;20400;-71
2021/11/08 13:37:41;;;;;;;19.83;3.60;;;16.50;82.50;;;;;;5095648;28;20966;-71
2021/11/08 13:40:17;;;;;;;22.02;3.67;;;16.40;83.10;;;;;;5077015;28;20412;-71
2021/11/08 13:42:43;;;;;;;21.65;3.90;;;16.20;83.90;;;;;;5090088;28;21312;-71
2021/11/08 13:45:09;;;;;;;21.47;4.10;;;16.20;84.80;;;;;;5098709;28;20662;-72
2021/11/08 13:47:40;;;;;;;27.10;4.05;;;16.10;85.70;;;;;;5076482;28;22039;-73
2021/11/08 13:50:11;;;;;;;20.17;3.47;;;16.00;86.10;;;;;;5093276;28;20444;-71
2021/11/08 13:52:37;;;;;;;25.40;4.07;;;15.90;86.30;;;;;;5097209;28;20419;-71
2021/11/08 13:55:07;;;;;;;20.98;3.88;;;15.80;86.40;;;;;;5095552;28;20424;-73
2021/11/08 13:57:37;;;;;;;23.10;3.78;;;15.80;87.40;;;;;;5094978;28;20435;-73
2021/11/08 14:00:07;;;;;;;23.55;3.85;;;15.70;87.70;;;;;;5082571;28;20416;-74
2021/11/08 14:02:38;;;;;;;20.42;3.95;;;15.60;88.30;;;;;;5092391;28;20469;-74
2021/11/08 14:05:04;;;;;;;23.30;3.72;;;15.60;88.70;;;;;;5098301;28;20409;-73
2021/11/08 14:07:30;;;;;;;20.13;3.63;;;15.50;89.00;;;;;;5084507;28;20430;-72
2021/11/08 14:09:57;;;;;;;21.90;3.92;;;15.50;89.10;;;;;;5091673;28;20497;-73
2021/11/08 14:12:28;;;;;;;24.98;3.97;;;15.50;89.30;;;;;;5091391;28;20457;-74
2021/11/08 14:14:55;;;;;;;21.17;3.55;;;15.40;89.50;;;;;;5085010;28;20408;-73
2021/11/08 14:17:29;;;;;;;22.85;3.05;;;15.40;89.50;;;;;;5081096;28;20442;-73
2021/11/08 14:20:05;;;;;;;24.33;3.70;;;15.40;89.20;;;;;;5059010;28;20435;-73
2021/11/08 14:22:33;;;;;;;20.38;3.38;;;15.30;89.40;;;;;;5078699;28;20420;-73
2021/11/08 14:25:00;;;;;;;23.00;3.40;;;15.30;89.70;;;;;;5096808;28;20413;-73
2021/11/08 14:27:33;;;;;;;27.08;3.90;;;15.30;89.70;;;;;;5085097;28;20527;-73
2021/11/08 14:30:10;;;;;;;21.40;3.45;;;15.30;89.70;;;;;;5084485;28;20404;-74
2021/11/08 14:32:36;;;;;;;19.45;3.25;;;15.30;89.70;;;;;;5078992;28;20915;-74